sensor_id;sensor_type;location;lat;lon;timestamp;P1;durP1;ratioP1;P2;durP2;ratioP2
10052;SDS011;52418;53.134;8.236;2023-03-23T00:00:22;1.00;;;1.00;;
10052;SDS011;52418;53.134;8.236;2023-03-23T00:02:47;1.00;;;1.00;;
10052;SDS011;52418;53.134;8.236;2023-03-23T00:05:12;1.00;;;1.00;;
10052;SDS011;52418;53.134;8.236;2023-03-23T00:07:37;1.00;;;1.00;;
10052;SDS011;52418;53.134;8.236;2023-03-23T00:10:02;1.00;;;1.00;;
10052;SDS011;52418;53.134;8.236;2023-03-23T00:12:29;1.10;;;1.10;;
10052;SDS011;52418;53.134;8.236;2023-03-23T00:15:01;1.10;;;1.10;;
10052;SDS011;52418;53.134;8.236;2023-03-23T00:17:27;1.10;;;1.10;;
10052;SDS011;52418;53.134;8.236;2023-03-23T00:19:52;1.10;;;1.10;;
10052;SDS011;52418;53.134;8.236;2023-03-23T00:22:17;1.00;;;1.00;;
10052;SDS011;52418;53.134;8.236;2023-03-23T00:24:46;0.90;;;0.90;;
10052;SDS011;52418;53.134;8.236;2023-03-23T00:27:11;1.00;;;1.00;;
10052;SDS011;52418;53.134;8.236;2023-03-23T00:29:40;1.07;;;1.07;;
10052;SDS011;52418;53.134;8.236;2023-03-23T00:32:05;1.10;;;1.10;;
10052;SDS011;52418;53.134;8.236;2023-03-23T00:34:31;1.00;;;1.00;;
10052;SDS011;52418;53.134;8.236;2023-03-23T00:36:57;1.00;;;1.00;;
10052;SDS011;52418;53.134;8.236;2023-03-23T00:39:24;1.00;;;1.00;;
10052;SDS011;52418;53.134;8.236;2023-03-23T00:41:51;1.00;;;1.00;;
10052;SDS011;52418;53.134;8.236;2023-03-23T00:44:17;1.00;;;1.00;;
10052;SDS011;52418;53.134;8.236;2023-03-23T00:46:47;1.00;;;1.00;;
10052;SDS011;52418;53.134;8.236;2023-03-23T00:49:14;1.03;;;1.03;;
10052;SDS011;52418;53.134;8.236;2023-03-23T00:51:40;1.00;;;1.00;;
10052;SDS011;52418;53.134;8.236;2023-03-23T00:54:05;1.00;;;1.00;;
10052;SDS011;52418;53.134;8.236;2023-03-23T00:56:31;1.10;;;1.10;;
10052;SDS011;52418;53.134;8.236;2023-03-23T00:58:56;1.10;;;1.10;;
10052;SDS011;52418;53.134;8.236;2023-03-23T01:01:21;1.00;;;1.00;;
10052;SDS011;52418;53.134;8.236;2023-03-23T01:03:47;0.90;;;0.90;;
10052;SDS011;52418;53.134;8.236;2023-03-23T01:06:12;0.90;;;0.90;;
10052;SDS011;52418;53.134;8.236;2023-03-23T01:08:40;0.97;;;0.97;;
10052;SDS011;52418;53.134;8.236;2023-03-23T01:11:11;1.00;;;1.00;;
10052;SDS011;52418;53.134;8.236;2023-03-23T01:13:37;1.10;;;1.10;;
10052;SDS011;52418;53.134;8.236;2023-03-23T01:16:02;1.00;;;1.00;;
10052;SDS011;52418;53.134;8.236;2023-03-23T01:18:27;1.00;;;1.00;;
10052;SDS011;52418;53.134;8.236;2023-03-23T01:20:53;0.90;;;0.90;;
10052;SDS011;52418;53.134;8.236;2023-03-23T01:23:18;0.90;;;0.90;;
10052;SDS011;52418;53.134;8.236;2023-03-23T01:25:43;1.00;;;1.00;;
10052;SDS011;52418;53.134;8.236;2023-03-23T01:28:10;1.00;;;1.00;;
10052;SDS011;52418;53.134;8.236;2023-03-23T01:30:36;1.10;;;1.10;;
10052;SDS011;52418;53.134;8.236;2023-03-23T01:33:01;1.03;;;1.03;;
10052;SDS011;52418;53.134;8.236;2023-03-23T01:35:26;1.00;;;1.00;;
10052;SDS011;52418;53.134;8.236;2023-03-23T01:37:52;1.00;;;1.00;;
10052;SDS011;52418;53.134;8.236;2023-03-23T01:40:17;1.03;;;1.03;;
10052;SDS011;52418;53.134;8.236;2023-03-23T01:42:42;1.00;;;1.00;;
10052;SDS011;52418;53.134;8.236;2023-03-23T01:47:48;1.00;;;1.00;;
10052;SDS011;52418;53.134;8.236;2023-03-23T01:50:16;1.00;;;1.00;;
10052;SDS011;52418;53.134;8.236;2023-03-23T01:52:41;1.00;;;1.00;;
10052;SDS011;52418;53.134;8.236;2023-03-23T01:55:07;1.10;;;1.10;;
10052;SDS011;52418;53.134;8.236;2023-03-23T01:57:32;1.00;;;1.00;;
10052;SDS011;52418;53.134;8.236;2023-03-23T01:59:59;1.00;;;1.00;;
10052;SDS011;52418;53.134;8.236;2023-03-23T02:02:31;1.00;;;1.00;;
10052;SDS011;52418;53.134;8.236;2023-03-23T02:05:00;1.00;;;1.00;;
10052;SDS011;52418;53.134;8.236;2023-03-23T02:07:27;1.00;;;1.00;;
10052;SDS011;52418;53.134;8.236;2023-03-23T02:09:52;0.90;;;0.90;;
10052;SDS011;52418;53.134;8.236;2023-03-23T02:12:18;0.93;;;0.93;;
10052;SDS011;52418;53.134;8.236;2023-03-23T02:14:43;1.10;;;1.10;;
10052;SDS011;52418;53.134;8.236;2023-03-23T02:24:46;1.00;;;1.00;;
10052;SDS011;52418;53.134;8.236;2023-03-23T02:27:19;1.00;;;1.00;;
10052;SDS011;52418;53.134;8.236;2023-03-23T02:35:10;1.00;;;1.00;;
10052;SDS011;52418;53.134;8.236;2023-03-23T02:37:38;0.90;;;0.90;;
10052;SDS011;52418;53.134;8.236;2023-03-23T02:42:33;1.00;;;1.00;;
10052;SDS011;52418;53.134;8.236;2023-03-23T02:45:02;1.00;;;1.00;;
10052;SDS011;52418;53.134;8.236;2023-03-23T02:47:29;1.00;;;1.00;;
10052;SDS011;52418;53.134;8.236;2023-03-23T02:49:55;1.00;;;1.00;;
10052;SDS011;52418;53.134;8.236;2023-03-23T02:52:22;1.00;;;1.00;;
10052;SDS011;52418;53.134;8.236;2023-03-23T02:54:48;0.90;;;0.90;;
10052;SDS011;52418;53.134;8.236;2023-03-23T02:57:13;1.00;;;1.00;;
10052;SDS011;52418;53.134;8.236;2023-03-23T02:59:39;0.90;;;0.90;;
10052;SDS011;52418;53.134;8.236;2023-03-23T03:04:50;1.00;;;1.00;;
10052;SDS011;52418;53.134;8.236;2023-03-23T03:07:30;1.00;;;1.00;;
10052;SDS011;52418;53.134;8.236;2023-03-23T03:10:08;1.00;;;1.00;;
10052;SDS011;52418;53.134;8.236;2023-03-23T03:12:46;1.00;;;1.00;;
10052;SDS011;52418;53.134;8.236;2023-03-23T03:17:52;1.00;;;1.00;;
10052;SDS011;52418;53.134;8.236;2023-03-23T03:20:19;0.90;;;0.90;;
10052;SDS011;52418;53.134;8.236;2023-03-23T03:22:46;1.10;;;1.10;;
10052;SDS011;52418;53.134;8.236;2023-03-23T03:25:13;1.00;;;1.00;;
10052;SDS011;52418;53.134;8.236;2023-03-23T03:27:40;0.90;;;0.90;;
10052;SDS011;52418;53.134;8.236;2023-03-23T03:30:06;0.90;;;0.90;;
10052;SDS011;52418;53.134;8.236;2023-03-23T03:32:36;1.10;;;1.10;;
10052;SDS011;52418;53.134;8.236;2023-03-23T03:35:04;1.00;;;1.00;;
10052;SDS011;52418;53.134;8.236;2023-03-23T03:37:34;1.10;;;1.10;;
10052;SDS011;52418;53.134;8.236;2023-03-23T03:40:02;1.00;;;1.00;;
10052;SDS011;52418;53.134;8.236;2023-03-23T03:42:28;1.00;;;1.00;;
10052;SDS011;52418;53.134;8.236;2023-03-23T03:44:53;1.00;;;1.00;;
10052;SDS011;52418;53.134;8.236;2023-03-23T03:47:18;0.90;;;0.90;;
10052;SDS011;52418;53.134;8.236;2023-03-23T03:49:43;1.00;;;1.00;;
10052;SDS011;52418;53.134;8.236;2023-03-23T03:52:08;1.00;;;1.00;;
10052;SDS011;52418;53.134;8.236;2023-03-23T03:54:34;1.03;;;1.03;;
10052;SDS011;52418;53.134;8.236;2023-03-23T03:57:00;1.00;;;1.00;;
10052;SDS011;52418;53.134;8.236;2023-03-23T03:59:25;1.00;;;1.00;;
10052;SDS011;52418;53.134;8.236;2023-03-23T04:01:51;1.10;;;1.10;;
10052;SDS011;52418;53.134;8.236;2023-03-23T04:04:19;1.10;;;1.10;;
10052;SDS011;52418;53.134;8.236;2023-03-23T04:06:44;1.10;;;1.10;;
10052;SDS011;52418;53.134;8.236;2023-03-23T04:09:09;1.00;;;1.00;;
10052;SDS011;52418;53.134;8.236;2023-03-23T04:11:35;1.10;;;1.10;;
10052;SDS011;52418;53.134;8.236;2023-03-23T04:14:08;1.00;;;1.00;;
10052;SDS011;52418;53.134;8.236;2023-03-23T04:16:33;1.00;;;1.00;;
10052;SDS011;52418;53.134;8.236;2023-03-23T04:18:59;1.10;;;1.10;;
10052;SDS011;52418;53.134;8.236;2023-03-23T04:21:25;1.07;;;1.07;;
10052;SDS011;52418;53.134;8.236;2023-03-23T04:23:53;1.00;;;1.00;;
10052;SDS011;52418;53.134;8.236;2023-03-23T04:26:18;1.05;;;1.05;;
10052;SDS011;52418;53.134;8.236;2023-03-23T04:28:43;1.00;;;1.00;;
10052;SDS011;52418;53.134;8.236;2023-03-23T04:31:09;1.08;;;1.08;;
10052;SDS011;52418;53.134;8.236;2023-03-23T04:33:34;1.00;;;1.00;;
10052;SDS011;52418;53.134;8.236;2023-03-23T04:35:59;1.10;;;1.10;;
10052;SDS011;52418;53.134;8.236;2023-03-23T04:38:26;1.10;;;1.10;;
10052;SDS011;52418;53.134;8.236;2023-03-23T04:40:52;1.10;;;1.10;;
10052;SDS011;52418;53.134;8.236;2023-03-23T04:43:17;1.00;;;1.00;;
10052;SDS011;52418;53.134;8.236;2023-03-23T04:45:46;1.00;;;1.00;;
10052;SDS011;52418;53.134;8.236;2023-03-23T04:48:11;1.10;;;1.10;;
10052;SDS011;52418;53.134;8.236;2023-03-23T04:50:36;1.00;;;1.00;;
10052;SDS011;52418;53.134;8.236;2023-03-23T04:53:04;1.10;;;1.10;;
10052;SDS011;52418;53.134;8.236;2023-03-23T04:55:30;1.10;;;1.10;;
10052;SDS011;52418;53.134;8.236;2023-03-23T04:57:55;1.00;;;1.00;;
10052;SDS011;52418;53.134;8.236;2023-03-23T05:00:21;1.10;;;1.10;;
10052;SDS011;52418;53.134;8.236;2023-03-23T05:02:46;1.20;;;1.20;;
10052;SDS011;52418;53.134;8.236;2023-03-23T05:05:12;1.10;;;1.10;;
10052;SDS011;52418;53.134;8.236;2023-03-23T05:07:38;0.93;;;0.93;;
10052;SDS011;52418;53.134;8.236;2023-03-23T05:10:04;1.07;;;1.07;;
10052;SDS011;52418;53.134;8.236;2023-03-23T05:12:30;1.00;;;1.00;;
10052;SDS011;52418;53.134;8.236;2023-03-23T05:14:55;1.00;;;1.00;;
10052;SDS011;52418;53.134;8.236;2023-03-23T05:17:20;1.00;;;1.00;;
10052;SDS011;52418;53.134;8.236;2023-03-23T05:19:49;1.00;;;1.00;;
10052;SDS011;52418;53.134;8.236;2023-03-23T05:22:14;0.90;;;0.90;;
10052;SDS011;52418;53.134;8.236;2023-03-23T05:24:39;1.00;;;1.00;;
10052;SDS011;52418;53.134;8.236;2023-03-23T05:27:05;1.00;;;1.00;;
10052;SDS011;52418;53.134;8.236;2023-03-23T05:29:32;1.00;;;1.00;;
10052;SDS011;52418;53.134;8.236;2023-03-23T05:31:58;1.00;;;1.00;;
10052;SDS011;52418;53.134;8.236;2023-03-23T05:34:27;0.90;;;0.90;;
10052;SDS011;52418;53.134;8.236;2023-03-23T05:36:53;1.10;;;1.10;;
10052;SDS011;52418;53.134;8.236;2023-03-23T05:39:20;1.00;;;1.00;;
10052;SDS011;52418;53.134;8.236;2023-03-23T05:41:45;1.00;;;1.00;;
10052;SDS011;52418;53.134;8.236;2023-03-23T05:44:11;0.90;;;0.90;;
10052;SDS011;52418;53.134;8.236;2023-03-23T05:46:38;0.90;;;0.90;;
10052;SDS011;52418;53.134;8.236;2023-03-23T05:49:03;0.80;;;0.80;;
10052;SDS011;52418;53.134;8.236;2023-03-23T05:51:28;0.90;;;0.90;;
10052;SDS011;52418;53.134;8.236;2023-03-23T05:53:54;0.90;;;0.90;;
10052;SDS011;52418;53.134;8.236;2023-03-23T05:56:19;0.90;;;0.90;;
10052;SDS011;52418;53.134;8.236;2023-03-23T05:58:44;0.80;;;0.80;;
10052;SDS011;52418;53.134;8.236;2023-03-23T06:01:10;0.90;;;0.90;;
10052;SDS011;52418;53.134;8.236;2023-03-23T06:03:37;1.00;;;1.00;;
10052;SDS011;52418;53.134;8.236;2023-03-23T06:06:02;0.90;;;0.90;;
10052;SDS011;52418;53.134;8.236;2023-03-23T06:08:28;0.90;;;0.90;;
10052;SDS011;52418;53.134;8.236;2023-03-23T06:10:53;0.90;;;0.90;;
10052;SDS011;52418;53.134;8.236;2023-03-23T06:13:19;0.90;;;0.90;;
10052;SDS011;52418;53.134;8.236;2023-03-23T06:15:44;0.90;;;0.90;;
10052;SDS011;52418;53.134;8.236;2023-03-23T06:18:09;0.90;;;0.90;;
10052;SDS011;52418;53.134;8.236;2023-03-23T06:20:35;1.00;;;1.00;;
10052;SDS011;52418;53.134;8.236;2023-03-23T06:23:01;0.90;;;0.90;;
10052;SDS011;52418;53.134;8.236;2023-03-23T06:25:28;0.90;;;0.90;;
10052;SDS011;52418;53.134;8.236;2023-03-23T06:27:54;0.90;;;0.90;;
10052;SDS011;52418;53.134;8.236;2023-03-23T06:30:19;0.90;;;0.90;;
10052;SDS011;52418;53.134;8.236;2023-03-23T06:32:45;0.90;;;0.90;;
10052;SDS011;52418;53.134;8.236;2023-03-23T06:35:12;0.90;;;0.90;;
10052;SDS011;52418;53.134;8.236;2023-03-23T06:37:37;1.00;;;1.00;;
10052;SDS011;52418;53.134;8.236;2023-03-23T06:40:03;1.00;;;1.00;;
10052;SDS011;52418;53.134;8.236;2023-03-23T06:42:32;1.10;;;1.10;;
10052;SDS011;52418;53.134;8.236;2023-03-23T06:44:57;1.13;;;1.13;;
10052;SDS011;52418;53.134;8.236;2023-03-23T06:47:23;1.03;;;1.03;;
10052;SDS011;52418;53.134;8.236;2023-03-23T06:49:48;1.27;;;1.27;;
10052;SDS011;52418;53.134;8.236;2023-03-23T06:52:13;1.20;;;1.20;;
10052;SDS011;52418;53.134;8.236;2023-03-23T06:54:38;1.53;;;1.43;;
10052;SDS011;52418;53.134;8.236;2023-03-23T06:57:04;1.50;;;1.40;;
10052;SDS011;52418;53.134;8.236;2023-03-23T06:59:29;1.60;;;1.50;;
10052;SDS011;52418;53.134;8.236;2023-03-23T07:01:54;1.60;;;1.50;;
10052;SDS011;52418;53.134;8.236;2023-03-23T07:04:19;1.50;;;1.40;;
10052;SDS011;52418;53.134;8.236;2023-03-23T07:06:45;1.60;;;1.50;;
10052;SDS011;52418;53.134;8.236;2023-03-23T07:09:11;1.60;;;1.50;;
10052;SDS011;52418;53.134;8.236;2023-03-23T07:11:37;1.70;;;1.60;;
10052;SDS011;52418;53.134;8.236;2023-03-23T07:14:02;1.57;;;1.47;;
10052;SDS011;52418;53.134;8.236;2023-03-23T07:16:27;1.80;;;1.70;;
10052;SDS011;52418;53.134;8.236;2023-03-23T07:18:53;1.60;;;1.50;;
10052;SDS011;52418;53.134;8.236;2023-03-23T07:21:18;1.90;;;1.80;;
10052;SDS011;52418;53.134;8.236;2023-03-23T07:23:43;1.80;;;1.70;;
10052;SDS011;52418;53.134;8.236;2023-03-23T07:26:08;1.70;;;1.60;;
10052;SDS011;52418;53.134;8.236;2023-03-23T07:28:33;1.67;;;1.57;;
10052;SDS011;52418;53.134;8.236;2023-03-23T07:30:58;1.50;;;1.40;;
10052;SDS011;52418;53.134;8.236;2023-03-23T07:33:24;1.60;;;1.50;;
10052;SDS011;52418;53.134;8.236;2023-03-23T07:35:49;1.90;;;1.80;;
10052;SDS011;52418;53.134;8.236;2023-03-23T07:38:15;1.70;;;1.60;;
10052;SDS011;52418;53.134;8.236;2023-03-23T07:40:40;1.63;;;1.53;;
10052;SDS011;52418;53.134;8.236;2023-03-23T07:43:06;1.10;;;1.10;;
10052;SDS011;52418;53.134;8.236;2023-03-23T07:45:32;1.10;;;1.10;;
10052;SDS011;52418;53.134;8.236;2023-03-23T07:47:57;1.00;;;1.00;;
10052;SDS011;52418;53.134;8.236;2023-03-23T07:50:24;1.00;;;1.00;;
10052;SDS011;52418;53.134;8.236;2023-03-23T07:52:50;1.00;;;1.00;;
10052;SDS011;52418;53.134;8.236;2023-03-23T07:55:16;1.00;;;1.00;;
10052;SDS011;52418;53.134;8.236;2023-03-23T07:57:44;1.00;;;1.00;;
10052;SDS011;52418;53.134;8.236;2023-03-23T08:00:10;1.00;;;1.00;;
10052;SDS011;52418;53.134;8.236;2023-03-23T08:02:38;1.00;;;1.00;;
10052;SDS011;52418;53.134;8.236;2023-03-23T08:05:04;1.00;;;1.00;;
10052;SDS011;52418;53.134;8.236;2023-03-23T08:07:29;0.93;;;0.93;;
10052;SDS011;52418;53.134;8.236;2023-03-23T08:09:54;1.00;;;1.00;;
10052;SDS011;52418;53.134;8.236;2023-03-23T08:12:19;1.00;;;1.00;;
10052;SDS011;52418;53.134;8.236;2023-03-23T08:14:44;1.05;;;1.05;;
10052;SDS011;52418;53.134;8.236;2023-03-23T08:17:09;1.10;;;1.10;;
10052;SDS011;52418;53.134;8.236;2023-03-23T08:19:35;1.00;;;1.00;;
10052;SDS011;52418;53.134;8.236;2023-03-23T08:22:02;1.00;;;1.00;;
10052;SDS011;52418;53.134;8.236;2023-03-23T08:24:27;1.00;;;1.00;;
10052;SDS011;52418;53.134;8.236;2023-03-23T08:26:52;1.00;;;1.00;;
10052;SDS011;52418;53.134;8.236;2023-03-23T08:29:18;1.00;;;1.00;;
10052;SDS011;52418;53.134;8.236;2023-03-23T08:31:43;1.10;;;1.10;;
10052;SDS011;52418;53.134;8.236;2023-03-23T08:34:09;1.00;;;1.00;;
10052;SDS011;52418;53.134;8.236;2023-03-23T08:36:35;1.00;;;1.00;;
10052;SDS011;52418;53.134;8.236;2023-03-23T08:39:02;1.00;;;1.00;;
10052;SDS011;52418;53.134;8.236;2023-03-23T08:41:29;1.03;;;1.03;;
10052;SDS011;52418;53.134;8.236;2023-03-23T08:43:55;1.00;;;1.00;;
10052;SDS011;52418;53.134;8.236;2023-03-23T08:46:20;1.00;;;1.00;;
10052;SDS011;52418;53.134;8.236;2023-03-23T08:48:45;1.00;;;1.00;;
10052;SDS011;52418;53.134;8.236;2023-03-23T08:51:11;1.00;;;1.00;;
10052;SDS011;52418;53.134;8.236;2023-03-23T08:53:37;0.90;;;0.90;;
10052;SDS011;52418;53.134;8.236;2023-03-23T08:56:03;1.00;;;1.00;;
10052;SDS011;52418;53.134;8.236;2023-03-23T08:58:28;1.00;;;1.00;;
10052;SDS011;52418;53.134;8.236;2023-03-23T09:00:54;1.00;;;1.00;;
10052;SDS011;52418;53.134;8.236;2023-03-23T09:03:19;1.00;;;1.00;;
10052;SDS011;52418;53.134;8.236;2023-03-23T09:05:44;1.00;;;1.00;;
10052;SDS011;52418;53.134;8.236;2023-03-23T09:08:11;1.00;;;1.00;;
10052;SDS011;52418;53.134;8.236;2023-03-23T09:10:37;0.90;;;0.90;;
10052;SDS011;52418;53.134;8.236;2023-03-23T09:13:02;1.00;;;1.00;;
10052;SDS011;52418;53.134;8.236;2023-03-23T09:15:27;1.00;;;1.00;;
10052;SDS011;52418;53.134;8.236;2023-03-23T09:17:53;1.00;;;1.00;;
10052;SDS011;52418;53.134;8.236;2023-03-23T09:20:20;1.00;;;1.00;;
10052;SDS011;52418;53.134;8.236;2023-03-23T09:22:47;0.90;;;0.90;;
10052;SDS011;52418;53.134;8.236;2023-03-23T09:25:13;1.00;;;1.00;;
10052;SDS011;52418;53.134;8.236;2023-03-23T09:27:40;1.00;;;1.00;;
10052;SDS011;52418;53.134;8.236;2023-03-23T09:30:07;1.00;;;1.00;;
10052;SDS011;52418;53.134;8.236;2023-03-23T09:32:33;0.90;;;0.90;;
10052;SDS011;52418;53.134;8.236;2023-03-23T09:35:00;0.90;;;0.90;;
10052;SDS011;52418;53.134;8.236;2023-03-23T09:37:25;1.00;;;1.00;;
10052;SDS011;52418;53.134;8.236;2023-03-23T09:39:50;0.90;;;0.90;;
10052;SDS011;52418;53.134;8.236;2023-03-23T09:49:56;0.83;;;0.83;;
10052;SDS011;52418;53.134;8.236;2023-03-23T09:52:27;1.10;;;1.10;;
10052;SDS011;52418;53.134;8.236;2023-03-23T09:54:54;1.10;;;1.10;;
10052;SDS011;52418;53.134;8.236;2023-03-23T09:57:25;1.20;;;1.20;;
10052;SDS011;52418;53.134;8.236;2023-03-23T09:59:54;1.00;;;1.00;;
10052;SDS011;52418;53.134;8.236;2023-03-23T10:02:47;1.10;;;1.10;;
10052;SDS011;52418;53.134;8.236;2023-03-23T10:07:51;1.10;;;1.10;;
10052;SDS011;52418;53.134;8.236;2023-03-23T10:10:16;1.10;;;1.10;;
10052;SDS011;52418;53.134;8.236;2023-03-23T10:12:46;1.10;;;1.10;;
10052;SDS011;52418;53.134;8.236;2023-03-23T10:15:14;1.00;;;1.00;;
10052;SDS011;52418;53.134;8.236;2023-03-23T10:22:49;1.10;;;1.10;;
10052;SDS011;52418;53.134;8.236;2023-03-23T10:25:18;1.00;;;1.00;;
10052;SDS011;52418;53.134;8.236;2023-03-23T10:30:15;0.90;;;0.90;;
10052;SDS011;52418;53.134;8.236;2023-03-23T10:32:42;1.00;;;1.00;;
10052;SDS011;52418;53.134;8.236;2023-03-23T10:35:17;0.90;;;0.90;;
10052;SDS011;52418;53.134;8.236;2023-03-23T10:37:46;1.00;;;1.00;;
10052;SDS011;52418;53.134;8.236;2023-03-23T10:40:17;1.00;;;1.00;;
10052;SDS011;52418;53.134;8.236;2023-03-23T10:42:43;1.00;;;1.00;;
10052;SDS011;52418;53.134;8.236;2023-03-23T10:47:37;1.10;;;1.10;;
10052;SDS011;52418;53.134;8.236;2023-03-23T10:50:04;1.10;;;1.10;;
10052;SDS011;52418;53.134;8.236;2023-03-23T10:52:35;1.10;;;1.10;;
10052;SDS011;52418;53.134;8.236;2023-03-23T10:55:08;1.03;;;1.03;;
10052;SDS011;52418;53.134;8.236;2023-03-23T10:57:35;1.00;;;1.00;;
10052;SDS011;52418;53.134;8.236;2023-03-23T11:00:03;1.00;;;1.00;;
10052;SDS011;52418;53.134;8.236;2023-03-23T11:02:31;1.10;;;1.10;;
10052;SDS011;52418;53.134;8.236;2023-03-23T11:04:59;1.10;;;1.10;;
10052;SDS011;52418;53.134;8.236;2023-03-23T11:07:28;1.20;;;1.20;;
10052;SDS011;52418;53.134;8.236;2023-03-23T11:09:54;1.00;;;1.00;;
10052;SDS011;52418;53.134;8.236;2023-03-23T11:12:20;1.10;;;1.10;;
10052;SDS011;52418;53.134;8.236;2023-03-23T11:14:47;1.07;;;1.07;;
10052;SDS011;52418;53.134;8.236;2023-03-23T11:17:20;1.20;;;1.20;;
10052;SDS011;52418;53.134;8.236;2023-03-23T11:19:46;1.10;;;1.10;;
10052;SDS011;52418;53.134;8.236;2023-03-23T11:22:22;1.10;;;1.10;;
10052;SDS011;52418;53.134;8.236;2023-03-23T11:24:52;1.10;;;1.10;;
10052;SDS011;52418;53.134;8.236;2023-03-23T11:27:17;1.00;;;1.00;;
10052;SDS011;52418;53.134;8.236;2023-03-23T11:29:51;1.10;;;1.10;;
10052;SDS011;52418;53.134;8.236;2023-03-23T11:32:18;1.10;;;1.10;;
10052;SDS011;52418;53.134;8.236;2023-03-23T11:34:44;1.20;;;1.20;;
10052;SDS011;52418;53.134;8.236;2023-03-23T11:37:11;1.20;;;1.20;;
10052;SDS011;52418;53.134;8.236;2023-03-23T11:39:48;1.10;;;1.10;;
10052;SDS011;52418;53.134;8.236;2023-03-23T11:42:21;1.00;;;1.00;;
10052;SDS011;52418;53.134;8.236;2023-03-23T11:44:47;1.10;;;1.10;;
10052;SDS011;52418;53.134;8.236;2023-03-23T11:47:17;1.20;;;1.20;;
10052;SDS011;52418;53.134;8.236;2023-03-23T11:52:32;1.20;;;1.20;;
10052;SDS011;52418;53.134;8.236;2023-03-23T11:55:00;1.20;;;1.20;;
10052;SDS011;52418;53.134;8.236;2023-03-23T11:57:29;1.10;;;1.10;;
10052;SDS011;52418;53.134;8.236;2023-03-23T11:59:55;1.20;;;1.20;;
10052;SDS011;52418;53.134;8.236;2023-03-23T12:07:31;1.20;;;1.20;;
10052;SDS011;52418;53.134;8.236;2023-03-23T12:10:06;1.00;;;1.00;;
10052;SDS011;52418;53.134;8.236;2023-03-23T12:20:31;1.00;;;1.00;;
10052;SDS011;52418;53.134;8.236;2023-03-23T12:23:00;1.10;;;1.10;;
10052;SDS011;52418;53.134;8.236;2023-03-23T12:32:57;1.10;;;1.10;;
10052;SDS011;52418;53.134;8.236;2023-03-23T12:38:13;1.10;;;1.10;;
10052;SDS011;52418;53.134;8.236;2023-03-23T12:43:15;1.10;;;1.10;;
10052;SDS011;52418;53.134;8.236;2023-03-23T12:51:03;1.00;;;1.00;;
10052;SDS011;52418;53.134;8.236;2023-03-23T12:53:33;1.00;;;1.00;;
10052;SDS011;52418;53.134;8.236;2023-03-23T12:58:45;1.10;;;1.10;;
10052;SDS011;52418;53.134;8.236;2023-03-23T13:04:23;1.10;;;1.10;;
10052;SDS011;52418;53.134;8.236;2023-03-23T13:06:23;1.00;;;1.00;;
10052;SDS011;52418;53.134;8.236;2023-03-23T13:09:05;1.00;;;1.00;;
10052;SDS011;52418;53.134;8.236;2023-03-23T13:21:59;1.05;;;1.05;;
10052;SDS011;52418;53.134;8.236;2023-03-23T13:24:27;1.20;;;1.20;;
10052;SDS011;52418;53.134;8.236;2023-03-23T13:26:53;1.10;;;1.10;;
10052;SDS011;52418;53.134;8.236;2023-03-23T13:29:23;1.00;;;1.00;;
10052;SDS011;52418;53.134;8.236;2023-03-23T13:31:52;1.00;;;1.00;;
10052;SDS011;52418;53.134;8.236;2023-03-23T13:34:29;1.00;;;1.00;;
10052;SDS011;52418;53.134;8.236;2023-03-23T13:37:02;1.10;;;1.10;;
10052;SDS011;52418;53.134;8.236;2023-03-23T13:39:30;1.00;;;1.00;;
10052;SDS011;52418;53.134;8.236;2023-03-23T13:44:24;1.10;;;1.10;;
10052;SDS011;52418;53.134;8.236;2023-03-23T13:46:57;1.10;;;1.10;;
10052;SDS011;52418;53.134;8.236;2023-03-23T13:49:23;1.05;;;1.05;;
10052;SDS011;52418;53.134;8.236;2023-03-23T13:57:00;1.10;;;1.10;;
10052;SDS011;52418;53.134;8.236;2023-03-23T14:01:54;1.00;;;1.00;;
10052;SDS011;52418;53.134;8.236;2023-03-23T14:04:20;1.10;;;1.10;;
10052;SDS011;52418;53.134;8.236;2023-03-23T14:06:46;1.10;;;1.10;;
10052;SDS011;52418;53.134;8.236;2023-03-23T14:09:19;1.10;;;1.10;;
10052;SDS011;52418;53.134;8.236;2023-03-23T14:11:57;1.20;;;1.20;;
10052;SDS011;52418;53.134;8.236;2023-03-23T14:14:25;1.10;;;1.10;;
10052;SDS011;52418;53.134;8.236;2023-03-23T14:16:51;1.20;;;1.20;;
10052;SDS011;52418;53.134;8.236;2023-03-23T14:19:19;1.10;;;1.10;;
10052;SDS011;52418;53.134;8.236;2023-03-23T14:21:49;1.20;;;1.20;;
10052;SDS011;52418;53.134;8.236;2023-03-23T14:24:22;1.13;;;1.13;;
10052;SDS011;52418;53.134;8.236;2023-03-23T14:27:01;1.10;;;1.10;;
10052;SDS011;52418;53.134;8.236;2023-03-23T14:29:26;1.13;;;1.13;;
10052;SDS011;52418;53.134;8.236;2023-03-23T14:31:55;1.05;;;1.05;;
10052;SDS011;52418;53.134;8.236;2023-03-23T14:34:21;1.10;;;1.10;;
10052;SDS011;52418;53.134;8.236;2023-03-23T14:36:47;1.10;;;1.10;;
10052;SDS011;52418;53.134;8.236;2023-03-23T14:41:37;1.00;;;1.00;;
10052;SDS011;52418;53.134;8.236;2023-03-23T14:44:03;1.00;;;1.00;;
10052;SDS011;52418;53.134;8.236;2023-03-23T14:46:30;1.10;;;1.10;;
10052;SDS011;52418;53.134;8.236;2023-03-23T14:48:56;1.00;;;1.00;;
10052;SDS011;52418;53.134;8.236;2023-03-23T14:51:24;1.00;;;1.00;;
10052;SDS011;52418;53.134;8.236;2023-03-23T14:53:49;1.10;;;1.10;;
10052;SDS011;52418;53.134;8.236;2023-03-23T14:56:18;1.10;;;1.10;;
10052;SDS011;52418;53.134;8.236;2023-03-23T14:58:44;1.00;;;1.00;;
10052;SDS011;52418;53.134;8.236;2023-03-23T15:01:10;1.00;;;1.00;;
10052;SDS011;52418;53.134;8.236;2023-03-23T15:03:38;1.05;;;1.05;;
10052;SDS011;52418;53.134;8.236;2023-03-23T15:06:06;1.10;;;1.10;;
10052;SDS011;52418;53.134;8.236;2023-03-23T15:08:35;1.10;;;1.10;;
10052;SDS011;52418;53.134;8.236;2023-03-23T15:13:28;0.90;;;0.90;;
10052;SDS011;52418;53.134;8.236;2023-03-23T15:16:01;1.00;;;1.00;;
10052;SDS011;52418;53.134;8.236;2023-03-23T15:18:29;1.00;;;1.00;;
10052;SDS011;52418;53.134;8.236;2023-03-23T15:20:55;1.00;;;1.00;;
10052;SDS011;52418;53.134;8.236;2023-03-23T15:23:28;1.00;;;1.00;;
10052;SDS011;52418;53.134;8.236;2023-03-23T15:25:54;1.10;;;1.10;;
10052;SDS011;52418;53.134;8.236;2023-03-23T15:28:21;1.00;;;1.00;;
10052;SDS011;52418;53.134;8.236;2023-03-23T15:30:54;1.00;;;1.00;;
10052;SDS011;52418;53.134;8.236;2023-03-23T15:33:21;1.10;;;1.10;;
10052;SDS011;52418;53.134;8.236;2023-03-23T15:35:51;1.00;;;1.00;;
10052;SDS011;52418;53.134;8.236;2023-03-23T15:38:19;1.00;;;1.00;;
10052;SDS011;52418;53.134;8.236;2023-03-23T15:40:48;1.00;;;1.00;;
10052;SDS011;52418;53.134;8.236;2023-03-23T15:48:47;1.13;;;1.13;;
10052;SDS011;52418;53.134;8.236;2023-03-23T15:51:12;1.10;;;1.10;;
10052;SDS011;52418;53.134;8.236;2023-03-23T15:53:38;1.00;;;1.00;;
10052;SDS011;52418;53.134;8.236;2023-03-23T15:56:04;1.10;;;1.10;;
10052;SDS011;52418;53.134;8.236;2023-03-23T15:58:31;1.00;;;1.00;;
10052;SDS011;52418;53.134;8.236;2023-03-23T16:00:56;1.10;;;1.10;;
10052;SDS011;52418;53.134;8.236;2023-03-23T16:03:24;1.20;;;1.20;;
10052;SDS011;52418;53.134;8.236;2023-03-23T16:05:51;1.03;;;1.03;;
10052;SDS011;52418;53.134;8.236;2023-03-23T16:08:19;1.00;;;1.00;;
10052;SDS011;52418;53.134;8.236;2023-03-23T16:10:44;1.00;;;1.00;;
10052;SDS011;52418;53.134;8.236;2023-03-23T16:13:09;1.00;;;1.00;;
10052;SDS011;52418;53.134;8.236;2023-03-23T16:15:35;1.00;;;1.00;;
10052;SDS011;52418;53.134;8.236;2023-03-23T16:18:00;1.10;;;1.10;;
10052;SDS011;52418;53.134;8.236;2023-03-23T16:20:27;1.00;;;1.00;;
10052;SDS011;52418;53.134;8.236;2023-03-23T16:22:52;1.00;;;1.00;;
10052;SDS011;52418;53.134;8.236;2023-03-23T16:25:18;1.00;;;1.00;;
10052;SDS011;52418;53.134;8.236;2023-03-23T16:27:43;1.00;;;1.00;;
10052;SDS011;52418;53.134;8.236;2023-03-23T16:30:14;1.00;;;1.00;;
10052;SDS011;52418;53.134;8.236;2023-03-23T16:32:40;1.00;;;1.00;;
10052;SDS011;52418;53.134;8.236;2023-03-23T16:35:06;0.93;;;0.93;;
10052;SDS011;52418;53.134;8.236;2023-03-23T16:37:31;0.90;;;0.90;;
10052;SDS011;52418;53.134;8.236;2023-03-23T16:39:58;1.00;;;1.00;;